createdAt,value
2018-12-12T00:01:58.738Z,95865.95
2018-12-12T00:04:31.842Z,95863.25
2018-12-12T00:07:03.261Z,95877.27
2018-12-12T00:09:34.732Z,95870.33
2018-12-12T00:12:05.007Z,95870.70
2018-12-12T00:14:35.171Z,95865.88
2018-12-12T00:17:05.308Z,95855.97
2018-12-12T00:19:35.494Z,95859.34
2018-12-12T00:22:06.141Z,95858.27
2018-12-12T00:24:36.312Z,95857.26
2018-12-12T00:27:06.746Z,95861.64
2018-12-12T00:29:36.893Z,95859.34
2018-12-12T00:32:07.011Z,95858.59
2018-12-12T00:34:37.221Z,95857.59
2018-12-12T00:37:07.354Z,95860.31
2018-12-12T00:39:38.911Z,95853.75
2018-12-12T00:42:09.055Z,95851.73
2018-12-12T00:44:39.201Z,95848.33
2018-12-12T00:47:09.502Z,95846.55
2018-12-12T00:49:39.765Z,95848.97
2018-12-12T00:52:09.903Z,95850.89
2018-12-12T00:54:40.176Z,95849.88
2018-12-12T00:57:10.429Z,95852.51
2018-12-12T00:59:40.613Z,95855.64
2018-12-12T01:02:10.737Z,95861.59
2018-12-12T01:04:41.277Z,95871.09
2018-12-12T01:07:12.497Z,95872.95
2018-12-12T01:09:42.669Z,95870.94
2018-12-12T01:12:13.863Z,95866.22
2018-12-12T01:14:44.110Z,95866.28
2018-12-12T01:17:14.247Z,95871.84
2018-12-12T01:19:44.412Z,95869.91
2018-12-12T01:22:15.250Z,95871.70
2018-12-12T01:24:45.548Z,95872.48
2018-12-12T01:27:15.687Z,95880.13
2018-12-12T01:29:45.857Z,95886.36
2018-12-12T01:32:16.171Z,95889.33
2018-12-12T01:34:46.337Z,95895.80
2018-12-12T01:37:18.408Z,95891.38
2018-12-12T01:39:48.607Z,95889.09
2018-12-12T01:42:18.789Z,95878.09
2018-12-12T01:44:50.208Z,95876.83
2018-12-12T01:47:20.898Z,95881.47
2018-12-12T01:49:51.038Z,95887.94
2018-12-12T01:52:21.164Z,95883.36
2018-12-12T01:54:51.345Z,95885.66
2018-12-12T01:57:21.586Z,95883.47
2018-12-12T01:59:52.311Z,95886.73
2018-12-12T02:02:22.612Z,95873.39
2018-12-12T02:04:53.494Z,95885.15
2018-12-12T02:07:23.606Z,95884.71
2018-12-12T02:09:53.897Z,95891.38
2018-12-12T02:12:24.100Z,95890.88
2018-12-12T02:14:54.329Z,95888.05
2018-12-12T02:17:24.454Z,95883.88
2018-12-12T02:19:54.649Z,95884.88
2018-12-12T02:22:24.856Z,95881.04
2018-12-12T02:24:55.944Z,95883.23
2018-12-12T02:27:26.064Z,95880.70
2018-12-12T02:29:56.229Z,95877.73
2018-12-12T02:32:26.378Z,95878.01
2018-12-12T02:34:56.543Z,95872.82
2018-12-12T02:37:26.690Z,95866.02
2018-12-12T02:39:56.888Z,95862.14
2018-12-12T02:42:27.036Z,95860.75
2018-12-12T02:44:57.210Z,95856.52
2018-12-12T02:47:27.963Z,95855.03
2018-12-12T02:49:58.146Z,95849.91
2018-12-12T02:52:28.326Z,95849.24
2018-12-12T02:54:58.517Z,95850.18
2018-12-12T02:57:28.670Z,95848.83
2018-12-12T02:59:58.850Z,95846.61
2018-12-12T03:02:29.384Z,95847.45
2018-12-12T03:04:59.638Z,95856.05
2018-12-12T03:07:29.784Z,95853.38
2018-12-12T03:09:59.958Z,95854.75
2018-12-12T03:12:30.096Z,95849.23
2018-12-12T03:15:00.273Z,95851.27
2018-12-12T03:17:30.423Z,95848.63
2018-12-12T03:20:00.555Z,95844.08
2018-12-12T03:22:30.783Z,95847.91
2018-12-12T03:25:00.933Z,95855.19
2018-12-12T03:27:31.282Z,95854.55
2018-12-12T03:30:01.444Z,95854.29
2018-12-12T03:32:31.966Z,95853.43
2018-12-12T03:35:08.745Z,95850.50
2018-12-12T03:37:39.677Z,95856.34
2018-12-12T03:40:10.025Z,95855.88
2018-12-12T03:42:40.593Z,95849.66
2018-12-12T03:45:11.967Z,95851.22
2018-12-12T03:47:42.246Z,95849.22
2018-12-12T03:50:12.490Z,95851.69
2018-12-12T03:52:42.621Z,95843.60
2018-12-12T03:55:12.916Z,95842.52
2018-12-12T03:57:43.089Z,95844.59
2018-12-12T04:00:13.360Z,95843.37
2018-12-12T04:02:43.663Z,95843.20
2018-12-12T04:05:13.817Z,95844.26
2018-12-12T04:07:45.849Z,95846.02
2018-12-12T04:10:16.008Z,95849.57
2018-12-12T04:12:46.171Z,95846.98
2018-12-12T04:15:17.062Z,95836.34
2018-12-12T04:17:47.887Z,95844.72
2018-12-12T04:20:18.040Z,95847.22
2018-12-12T04:22:49.235Z,95842.16
2018-12-12T04:25:19.399Z,95845.08
2018-12-12T04:27:49.600Z,95841.11
2018-12-12T04:30:19.764Z,95839.69
2018-12-12T04:32:49.934Z,95843.25
2018-12-12T04:35:20.089Z,95843.52
2018-12-12T04:37:50.248Z,95837.13
2018-12-12T04:40:21.280Z,95843.80
2018-12-12T04:42:51.424Z,95841.52
2018-12-12T04:45:21.580Z,95838.04
2018-12-12T04:47:51.740Z,95846.59
2018-12-12T04:50:21.934Z,95838.27
2018-12-12T04:52:52.058Z,95836.25
2018-12-12T04:55:22.252Z,95842.19
2018-12-12T04:57:52.372Z,95844.72
2018-12-12T05:00:22.657Z,95851.48
2018-12-12T05:02:52.922Z,95849.74
2018-12-12T05:05:23.105Z,95852.97
2018-12-12T05:07:53.256Z,95852.50
2018-12-12T05:10:23.456Z,95854.70
2018-12-12T05:12:54.714Z,95858.39
2018-12-12T05:15:24.897Z,95854.36
2018-12-12T05:17:55.117Z,95850.98
2018-12-12T05:20:25.378Z,95853.15
2018-12-12T05:22:55.825Z,95851.53
2018-12-12T05:25:26.000Z,95856.92
2018-12-12T05:27:56.151Z,95856.14
2018-12-12T05:30:27.302Z,95847.34
2018-12-12T05:32:57.443Z,95856.75
2018-12-12T05:35:27.715Z,95861.77
2018-12-12T05:37:59.131Z,95861.67
2018-12-12T05:40:29.509Z,95859.41
2018-12-12T05:43:00.840Z,95861.52
2018-12-12T05:45:31.308Z,95856.09
2018-12-12T05:48:01.503Z,95863.27
2018-12-12T05:50:31.691Z,95856.45
2018-12-12T05:53:01.852Z,95863.08
2018-12-12T05:55:32.092Z,95860.89
2018-12-12T05:58:03.125Z,95866.55
2018-12-12T06:00:33.308Z,95861.64
2018-12-12T06:03:04.547Z,95859.71
2018-12-12T06:05:36.801Z,95860.95
2018-12-12T06:08:08.035Z,95866.07
2018-12-12T06:10:38.192Z,95862.20
2018-12-12T06:13:10.783Z,95863.35
2018-12-12T06:15:40.967Z,95868.36
2018-12-12T06:18:11.189Z,95867.52
2018-12-12T06:20:41.434Z,95869.00
2018-12-12T06:23:11.619Z,95870.55
2018-12-12T06:25:41.807Z,95867.72
2018-12-12T06:28:11.931Z,95871.45
2018-12-12T06:30:43.627Z,95871.27
2018-12-12T06:33:13.815Z,95878.91
2018-12-12T06:35:43.971Z,95875.72
2018-12-12T06:38:14.134Z,95878.20
2018-12-12T06:40:44.412Z,95882.14
2018-12-12T06:43:14.581Z,95879.28
2018-12-12T06:45:45.421Z,95880.13
2018-12-12T06:48:15.550Z,95879.28
2018-12-12T06:50:45.741Z,95880.19
2018-12-12T06:53:15.912Z,95881.70
2018-12-12T06:55:46.222Z,95875.31
2018-12-12T06:58:16.401Z,95882.18
2018-12-12T07:00:46.685Z,95888.23
2018-12-12T07:03:16.857Z,95888.45
2018-12-12T07:05:47.222Z,95881.70
2018-12-12T07:08:17.460Z,95885.11
2018-12-12T07:10:47.685Z,95889.80
2018-12-12T07:13:17.920Z,95887.54
2018-12-12T07:15:48.179Z,95886.83
2018-12-12T07:18:18.407Z,95894.98
2018-12-12T07:20:48.577Z,95893.37
2018-12-12T07:23:18.733Z,95894.07
2018-12-12T07:25:48.899Z,95895.05
2018-12-12T07:28:19.039Z,95891.89
2018-12-12T07:30:49.249Z,95891.22
2018-12-12T07:33:19.499Z,95894.62
2018-12-12T07:35:49.674Z,95893.47
2018-12-12T07:38:20.081Z,95891.89
2018-12-12T07:40:50.295Z,95896.77
2018-12-12T07:43:23.523Z,95885.89
2018-12-12T07:46:15.746Z,95894.70
2018-12-12T07:48:47.889Z,95893.56
2018-12-12T07:51:23.668Z,95891.59
2018-12-12T07:54:10.712Z,95891.00
2018-12-12T07:56:40.888Z,95886.89
2018-12-12T07:59:11.093Z,95889.46
2018-12-12T08:01:41.345Z,95890.41
2018-12-12T08:04:11.637Z,95888.02
2018-12-12T08:06:41.863Z,95886.40
2018-12-12T08:09:12.080Z,95889.50
2018-12-12T08:11:42.753Z,95882.72
2018-12-12T08:14:12.988Z,95894.75
2018-12-12T08:16:44.267Z,95887.07
2018-12-12T08:19:14.506Z,95893.27
2018-12-12T08:21:44.745Z,95892.59
2018-12-12T08:24:15.086Z,95890.47
2018-12-12T08:26:45.263Z,95886.77
2018-12-12T08:29:15.461Z,95883.23
2018-12-12T08:31:45.743Z,95894.48
2018-12-12T08:34:15.914Z,95895.16
2018-12-12T08:36:47.374Z,95898.66
2018-12-12T08:39:17.821Z,95891.28
2018-12-12T08:41:48.096Z,95894.11
2018-12-12T08:44:19.318Z,95895.01
2018-12-12T08:46:49.578Z,95892.12
2018-12-12T08:49:20.355Z,95888.48
2018-12-12T08:51:50.941Z,95895.45
2018-12-12T08:54:22.575Z,95894.50
2018-12-12T08:56:53.001Z,95900.30
2018-12-12T08:59:23.305Z,95897.22
2018-12-12T09:01:53.640Z,95895.64
2018-12-12T09:04:23.874Z,95905.80
2018-12-12T09:06:54.297Z,95902.30
2018-12-12T09:09:24.559Z,95911.12
2018-12-12T09:11:54.765Z,95899.95
2018-12-12T09:14:25.046Z,95901.37
2018-12-12T09:16:55.486Z,95907.58
2018-12-12T09:19:25.860Z,95903.00
2018-12-12T09:21:56.082Z,95906.09
2018-12-12T09:24:26.236Z,95912.04
2018-12-12T09:26:56.416Z,95906.51
2018-12-12T09:29:26.589Z,95906.40
2018-12-12T09:31:58.906Z,95904.27
2018-12-12T09:34:31.059Z,95897.88
2018-12-12T09:37:01.411Z,95907.92
2018-12-12T09:39:31.633Z,95905.41
2018-12-12T09:42:01.861Z,95901.73
2018-12-12T09:44:38.644Z,95897.30
2018-12-12T09:47:08.914Z,95897.82
2018-12-12T09:49:39.275Z,95898.58
2018-12-12T09:52:11.550Z,95896.03
2018-12-12T09:54:43.741Z,95892.91
2018-12-12T09:57:13.957Z,95896.19
2018-12-12T09:59:45.146Z,95893.13
2018-12-12T10:02:15.378Z,95892.31
2018-12-12T10:04:45.576Z,95889.70
2018-12-12T10:07:16.340Z,95893.59
2018-12-12T10:09:46.530Z,95894.26
2018-12-12T10:12:16.707Z,95890.06
2018-12-12T10:14:46.866Z,95884.87
2018-12-12T10:17:17.049Z,95884.16
2018-12-12T10:19:47.246Z,95882.73
2018-12-12T10:22:17.504Z,95881.80
2018-12-12T10:24:47.675Z,95880.08
2018-12-12T10:27:17.869Z,95874.03
2018-12-12T10:29:48.620Z,95875.33
2018-12-12T10:32:18.837Z,95877.81
2018-12-12T10:34:49.120Z,95872.16
2018-12-12T10:37:19.331Z,95864.98
2018-12-12T10:39:51.012Z,95870.05
2018-12-12T10:42:21.210Z,95867.33
2018-12-12T10:44:51.458Z,95868.98
2018-12-12T10:47:21.810Z,95864.91
2018-12-12T10:49:52.058Z,95863.41
2018-12-12T10:52:22.318Z,95859.86
2018-12-12T10:54:53.080Z,95857.37
2018-12-12T10:57:24.442Z,95855.44
2018-12-12T10:59:54.607Z,95847.20
2018-12-12T11:02:30.178Z,95853.63
2018-12-12T11:05:00.859Z,95853.91
2018-12-12T11:07:31.152Z,95850.77
2018-12-12T11:10:02.337Z,95857.83
2018-12-12T11:12:34.201Z,95851.05
2018-12-12T11:15:04.542Z,95844.03
2018-12-12T11:17:34.809Z,95844.27
2018-12-12T11:20:05.584Z,95847.86
2018-12-12T11:22:35.774Z,95845.03
2018-12-12T11:25:06.364Z,95843.06
2018-12-12T11:27:36.557Z,95849.91
2018-12-12T11:30:07.550Z,95848.55
2018-12-12T11:32:37.896Z,95845.11
2018-12-12T11:35:08.274Z,95848.13
2018-12-12T11:37:38.540Z,95842.83
2018-12-12T11:40:08.936Z,95843.42
2018-12-12T11:42:39.319Z,95836.42
2018-12-12T11:45:11.481Z,95834.31
2018-12-12T11:47:41.865Z,95835.36
2018-12-12T11:50:13.402Z,95833.63
2018-12-12T11:52:43.615Z,95836.41
2018-12-12T11:55:13.943Z,95831.27
2018-12-12T11:57:45.302Z,95833.15
2018-12-12T12:00:15.710Z,95824.11
2018-12-12T12:02:45.871Z,95825.83
2018-12-12T12:05:16.047Z,95817.92
2018-12-12T12:07:47.294Z,95813.81
2018-12-12T12:10:17.449Z,95823.52
2018-12-12T12:12:47.642Z,95817.41
2018-12-12T12:15:19.423Z,95821.14
2018-12-12T12:17:50.027Z,95818.09
2018-12-12T12:20:20.298Z,95817.75
2018-12-12T12:22:50.487Z,95819.11
2018-12-12T12:25:21.510Z,95814.38
2018-12-12T12:27:51.713Z,95812.39
2018-12-12T12:30:21.925Z,95819.13
2018-12-12T12:32:52.148Z,95816.56
2018-12-12T12:35:22.408Z,95808.27
2018-12-12T12:37:52.751Z,95808.50
2018-12-12T12:40:22.969Z,95807.10
2018-12-12T12:42:53.194Z,95802.28
2018-12-12T12:45:23.417Z,95797.56
2018-12-12T12:47:53.581Z,95795.63
2018-12-12T12:50:23.810Z,95803.34
2018-12-12T12:52:54.084Z,95799.88
2018-12-12T12:55:24.224Z,95788.19
2018-12-12T12:57:54.448Z,95794.52
2018-12-12T13:00:24.631Z,95792.48
2018-12-12T13:02:54.847Z,95795.03
2018-12-12T13:05:25.364Z,95798.20
2018-12-12T13:07:55.554Z,95792.91
2018-12-12T13:10:26.326Z,95799.17
2018-12-12T13:12:57.038Z,95792.41
2018-12-12T13:15:27.646Z,95789.47
2018-12-12T13:17:57.959Z,95787.13
2018-12-12T13:20:28.902Z,95783.43
2018-12-12T13:22:59.120Z,95782.80
2018-12-12T13:25:29.343Z,95776.39
2018-12-12T13:27:59.491Z,95777.28
2018-12-12T13:30:29.723Z,95776.64
2018-12-12T13:33:00.009Z,95774.70
2018-12-12T13:35:31.390Z,95777.25
2018-12-12T13:38:01.760Z,95772.43
2018-12-12T13:40:31.943Z,95771.45
2018-12-12T13:43:02.154Z,95765.30
2018-12-12T13:45:32.290Z,95766.30
2018-12-12T13:48:02.507Z,95767.95
2018-12-12T13:50:33.833Z,95766.30
2018-12-12T13:53:04.061Z,95769.47
2018-12-12T13:55:34.392Z,95761.72
2018-12-12T13:58:04.583Z,95764.03
2018-12-12T14:00:39.060Z,95764.84
2018-12-12T14:03:06.961Z,95761.67
2018-12-12T14:05:37.178Z,95755.41
2018-12-12T14:08:07.402Z,95759.02
2018-12-12T14:10:37.576Z,95757.87
2018-12-12T14:13:11.204Z,95755.02
2018-12-12T14:15:41.366Z,95753.81
2018-12-12T14:18:11.557Z,95754.89
2018-12-12T14:20:41.927Z,95757.95
2018-12-12T14:23:12.380Z,95755.75
2018-12-12T14:25:42.756Z,95755.38
2018-12-12T14:28:13.024Z,95753.31
2018-12-12T14:30:43.272Z,95754.16
2018-12-12T14:33:13.568Z,95750.33
2018-12-12T14:35:43.807Z,95749.05
2018-12-12T14:38:15.179Z,95747.61
2018-12-12T14:40:45.529Z,95746.95
2018-12-12T14:43:17.443Z,95745.17
2018-12-12T14:45:47.610Z,95740.77
2018-12-12T14:48:18.534Z,95738.44
2018-12-12T14:50:48.800Z,95739.15
2018-12-12T14:53:18.951Z,95735.02
2018-12-12T14:55:49.163Z,95732.97
2018-12-12T14:58:19.428Z,95732.89
2018-12-12T15:00:51.664Z,95734.86
2018-12-12T15:03:21.862Z,95734.06
2018-12-12T15:05:53.145Z,95734.20
2018-12-12T15:08:23.340Z,95724.36
2018-12-12T15:10:53.506Z,95728.89
2018-12-12T15:13:23.748Z,95732.02
2018-12-12T15:15:53.982Z,95727.99
2018-12-12T15:18:24.314Z,95723.63
2018-12-12T15:20:54.588Z,95726.32
2018-12-12T15:23:24.970Z,95721.50
2018-12-12T15:25:55.287Z,95718.78
2018-12-12T15:28:25.534Z,95724.12
2018-12-12T15:30:55.747Z,95721.19
2018-12-12T15:33:25.934Z,95716.47
2018-12-12T15:35:56.259Z,95714.80
2018-12-12T15:38:26.665Z,95722.33
2018-12-12T15:40:56.877Z,95715.41
2018-12-12T15:43:27.459Z,95723.09
2018-12-12T15:45:57.707Z,95714.72
2018-12-12T15:48:27.939Z,95718.56
2018-12-12T15:51:07.279Z,95716.94
2018-12-12T15:53:37.606Z,95716.63
2018-12-12T15:56:09.017Z,95717.02
2018-12-12T15:58:39.216Z,95721.50
2018-12-12T16:01:09.634Z,95715.11
2018-12-12T16:03:40.051Z,95717.76
2018-12-12T16:06:10.336Z,95715.64
2018-12-12T16:08:40.584Z,95707.19
2018-12-12T16:11:11.232Z,95713.44
2018-12-12T16:13:41.527Z,95713.05
2018-12-12T16:16:11.755Z,95714.80
2018-12-12T16:18:42.007Z,95713.52
2018-12-12T16:21:12.260Z,95711.47
2018-12-12T16:23:42.638Z,95712.98
2018-12-12T16:26:12.950Z,95715.06
2018-12-12T16:28:43.127Z,95721.22
2018-12-12T16:31:13.410Z,95714.33
2018-12-12T16:33:43.637Z,95718.33
2018-12-12T16:36:13.925Z,95722.18
2018-12-12T16:38:44.101Z,95721.91
2018-12-12T16:41:14.454Z,95714.17
2018-12-12T16:43:44.637Z,95713.49
2018-12-12T16:46:16.817Z,95714.06
2018-12-12T16:48:47.208Z,95716.50
2018-12-12T16:51:17.466Z,95715.34
2018-12-12T16:53:48.433Z,95709.48
2018-12-12T16:56:18.650Z,95713.98
2018-12-12T16:58:48.893Z,95715.31
2018-12-12T17:01:19.144Z,95711.30
2018-12-12T17:03:49.466Z,95706.97
2018-12-12T17:06:19.757Z,95708.58
2018-12-12T17:08:50.540Z,95707.41
2018-12-12T17:11:20.830Z,95706.31
2018-12-12T17:13:51.013Z,95709.36
2018-12-12T17:16:21.282Z,95705.35
2018-12-12T17:18:51.459Z,95706.58
2018-12-12T17:21:21.623Z,95699.91
2018-12-12T17:23:51.874Z,95706.87
2018-12-12T17:26:22.300Z,95700.61
2018-12-12T17:28:52.476Z,95702.78
2018-12-12T17:31:22.656Z,95703.55
2018-12-12T17:33:52.891Z,95705.80
2018-12-12T17:36:23.077Z,95701.30
2018-12-12T17:38:53.259Z,95702.87
2018-12-12T17:41:24.153Z,95701.79
2018-12-12T17:43:54.351Z,95698.09
2018-12-12T17:46:24.564Z,95698.59
2018-12-12T17:48:54.976Z,95690.23
2018-12-12T17:51:25.151Z,95693.50
2018-12-12T17:53:55.427Z,95694.63
2018-12-12T17:56:25.660Z,95697.07
2018-12-12T17:58:55.861Z,95688.96
2018-12-12T18:01:26.066Z,95691.94
2018-12-12T18:03:58.249Z,95690.81
2018-12-12T18:06:42.135Z,95689.24
2018-12-12T18:09:12.315Z,95691.24
2018-12-12T18:11:43.616Z,95691.09
2018-12-12T18:14:14.326Z,95690.69
2018-12-12T18:16:46.621Z,95687.77
2018-12-12T18:19:17.046Z,95694.48
2018-12-12T18:21:47.288Z,95693.70
2018-12-12T18:24:19.571Z,95688.48
2018-12-12T18:26:49.794Z,95695.66
2018-12-12T18:29:20.158Z,95697.58
2018-12-12T18:31:52.399Z,95693.59
2018-12-12T18:34:28.092Z,95690.77
2018-12-12T18:36:58.372Z,95688.09
2018-12-12T18:39:28.559Z,95688.28
2018-12-12T18:41:58.722Z,95683.55
2018-12-12T18:44:47.873Z,95682.67
2018-12-12T18:47:18.102Z,95682.66
2018-12-12T18:49:48.314Z,95685.09
2018-12-12T18:52:20.564Z,95681.42
2018-12-12T18:54:50.721Z,95681.55
2018-12-12T18:57:22.949Z,95684.98
2018-12-12T18:59:53.118Z,95684.30
2018-12-12T19:02:23.343Z,95679.14
2018-12-12T19:04:53.528Z,95684.91
2018-12-12T19:07:23.732Z,95679.13
2018-12-12T19:09:53.895Z,95683.62
2018-12-12T19:12:24.226Z,95679.86
2018-12-12T19:14:59.688Z,95682.99
2018-12-12T19:17:30.274Z,95679.70
2018-12-12T19:20:01.643Z,95677.19
2018-12-12T19:22:32.570Z,95680.88
2018-12-12T19:25:02.768Z,95674.47
2018-12-12T19:27:34.550Z,95674.57
2018-12-12T19:30:05.273Z,95678.78
2018-12-12T19:32:36.462Z,95677.30
2018-12-12T19:35:08.647Z,95669.93
2018-12-12T19:37:38.836Z,95677.23
2018-12-12T19:40:09.546Z,95677.59
2018-12-12T19:42:41.492Z,95675.04
2018-12-12T19:45:11.732Z,95675.27
2018-12-12T19:47:43.010Z,95676.09
2018-12-12T19:50:15.901Z,95664.50
2018-12-12T19:52:46.191Z,95668.39
2018-12-12T19:55:16.389Z,95669.96
2018-12-12T19:57:46.666Z,95665.39
2018-12-12T20:00:17.760Z,95658.63
2018-12-12T20:02:47.990Z,95665.27
2018-12-12T20:05:18.186Z,95660.73
2018-12-12T20:07:48.453Z,95662.15
2018-12-12T20:10:18.666Z,95662.63
2018-12-12T20:12:48.895Z,95656.52
2018-12-12T20:15:24.341Z,95652.42
2018-12-12T20:17:54.688Z,95652.56
2018-12-12T20:20:24.992Z,95649.00
2018-12-12T20:22:55.343Z,95645.23
2018-12-12T20:25:25.515Z,95644.73
2018-12-12T20:27:55.881Z,95644.11
2018-12-12T20:30:26.234Z,95649.66
2018-12-12T20:32:57.930Z,95642.94
2018-12-12T20:35:28.204Z,95641.10
2018-12-12T20:37:58.598Z,95643.08
2018-12-12T20:40:28.797Z,95638.03
2018-12-12T20:42:59.430Z,95639.00
2018-12-12T20:45:29.722Z,95634.42
2018-12-12T20:47:59.939Z,95635.19
2018-12-12T20:50:30.314Z,95637.02
2018-12-12T20:53:01.505Z,95634.66
2018-12-12T20:55:31.765Z,95630.89
2018-12-12T20:58:02.163Z,95629.45
2018-12-12T21:00:32.569Z,95630.28
2018-12-12T21:03:02.887Z,95630.59
2018-12-12T21:05:33.468Z,95623.81
2018-12-12T21:08:03.788Z,95621.86
2018-12-12T21:10:34.825Z,95618.86
2018-12-12T21:13:06.893Z,95616.50
2018-12-12T21:15:37.145Z,95613.94
2018-12-12T21:18:09.003Z,95614.61
2018-12-12T21:20:40.081Z,95616.95
2018-12-12T21:23:10.529Z,95614.45
2018-12-12T21:25:41.516Z,95615.61
2018-12-12T21:28:12.525Z,95621.71
2018-12-12T21:30:43.771Z,95608.88
2018-12-12T21:33:14.053Z,95614.75
2018-12-12T21:35:44.772Z,95615.00
2018-12-12T21:38:15.160Z,95610.25
2018-12-12T21:40:45.931Z,95608.68
2018-12-12T21:43:16.153Z,95608.06
2018-12-12T21:45:46.432Z,95605.36
2018-12-12T21:48:16.658Z,95600.69
2018-12-12T21:50:46.946Z,95598.90
2018-12-12T21:53:17.170Z,95599.17
2018-12-12T21:55:48.412Z,95596.70
2018-12-12T21:58:18.757Z,95593.97
2018-12-12T22:00:50.876Z,95587.28
2018-12-12T22:03:21.107Z,95595.56
2018-12-12T22:05:52.571Z,95590.91
2018-12-12T22:08:22.825Z,95589.90
2018-12-12T22:10:53.833Z,95595.80
2018-12-12T22:13:27.162Z,95593.77
2018-12-12T22:15:57.392Z,95589.92
2018-12-12T22:18:27.641Z,95588.23
2018-12-12T22:20:57.982Z,95579.80
2018-12-12T22:23:28.953Z,95585.22
2018-12-12T22:25:59.247Z,95582.27
2018-12-12T22:28:29.521Z,95578.59
2018-12-12T22:31:01.076Z,95574.77
2018-12-12T22:33:32.526Z,95578.51
2018-12-12T22:36:02.887Z,95577.12
2018-12-12T22:38:33.082Z,95574.43
2018-12-12T22:41:03.624Z,95573.15
2018-12-12T22:43:33.817Z,95574.56
2018-12-12T22:46:04.170Z,95572.00
2018-12-12T22:48:34.397Z,95571.52
2018-12-12T22:51:04.624Z,95567.91
2018-12-12T22:53:34.883Z,95569.64
2018-12-12T22:56:05.182Z,95565.19
2018-12-12T22:58:35.463Z,95563.07
2018-12-12T23:01:13.888Z,95562.42
2018-12-12T23:03:46.134Z,95557.37
2018-12-12T23:06:20.418Z,95555.49
2018-12-12T23:08:48.730Z,95554.53
2018-12-12T23:11:20.032Z,95555.56
2018-12-12T23:13:50.327Z,95553.64
2018-12-12T23:16:22.678Z,95545.11
2018-12-12T23:18:52.975Z,95545.61
2018-12-12T23:21:23.216Z,95541.66
2018-12-12T23:23:53.566Z,95538.47
2018-12-12T23:26:23.752Z,95537.06
2018-12-12T23:28:53.965Z,95540.80
2018-12-12T23:31:24.127Z,95531.62
2018-12-12T23:33:54.338Z,95541.17
2018-12-12T23:36:27.014Z,95532.77
2018-12-12T23:38:56.771Z,95529.88
2018-12-12T23:41:27.156Z,95526.78
2018-12-12T23:43:58.040Z,95530.66
2018-12-12T23:46:28.266Z,95522.52
2018-12-12T23:48:58.612Z,95525.90
2018-12-12T23:51:28.764Z,95521.23
2018-12-12T23:53:59.021Z,95518.22
2018-12-12T23:56:29.266Z,95506.76
2018-12-12T23:58:59.523Z,95511.00
